Flight Track Log - Related Links

Times and Time Zones

All times are in EDT time to prevent confusion due to time zone crossing. See the FSR411 flight status page for this flight to view local times or setup timezone preferences in your user account.

Time Position Orientation Groundspeed Altitude Reporting Facility
EDT Latitude Longitude Course Direction KTS MPH feet Rate Location/Type
Fri 11:51:16 AM 30.2061 -81.8806 250° West 170 196 700  Level Jacksonville Center
Fri 11:52:17 AM 30.1858 -81.9433 250° West 236 272 3,000 2,690 Climbing Jacksonville Center
Fri 11:53:12 AM 30.2092 -82.0008 295° West 236 272 5,900 3,393 Climbing Jacksonville Center
Fri 11:54:19 AM 30.2842 -82.0003 360° North 226 260 9,900 3,094 Climbing Jacksonville Center
Fri 11:55:20 AM 30.3594 -82.0067 356° North 307 353 12,500 2,341 Climbing Jacksonville Center
Fri 11:56:22 AM 30.4578 -82.0178 354° North 375 432 14,700 1,967 Climbing Jacksonville Center
Fri 11:57:22 AM 30.5622 -82.0264 356° North 385 443 16,500 2,100 Climbing Jacksonville Center
Fri 11:58:22 AM 30.6728 -82.0303 358° North 385 443 18,900 2,250 Climbing Jacksonville Center
Fri 11:59:22 AM 30.7878 -82.0342 358° North 390 449 21,000 1,850 Climbing Jacksonville Center
Fri 12:00:22 PM 30.9089 -82.0403 358° North 408 470 22,600 1,900 Climbing Jacksonville Center
Fri 12:01:22 PM 31.0278 -82.0464 357° North 418 481 24,800 2,050 Climbing Jacksonville Center
Fri 12:02:22 PM 31.1511 -82.0528 357° North 429 494 26,700 1,750 Climbing Jacksonville Center
Fri 12:03:22 PM 31.2764 -82.0564 359° North 434 499 28,300 1,500 Climbing Jacksonville Center
Fri 12:04:22 PM 31.4017 -82.0650 357° North 446 513 29,700 1,350 Climbing Jacksonville Center
Fri 12:05:22 PM 31.5292 -82.0686 359° North 453 521 31,000 1,250 Climbing Jacksonville Center
Fri 12:06:22 PM 31.6522 -82.0725 358° North 452 520 32,200 1,250 Climbing Jacksonville Center
Fri 12:07:22 PM 31.7672 -82.0764 358° North 452 520 33,500 1,250 Climbing Jacksonville Center
Fri 12:08:22 PM 31.9072 -82.0850 357° North 452 520 34,700 1,500 Climbing Jacksonville Center
Fri 12:10:30 PM 32.1675 -82.0956 358° North 440 506 38,200 1,372 Climbing Atlanta Center
Fri 12:11:30 PM 32.2656 -82.0958 360° North 424 488 39,000 400 Climbing Atlanta Center
Fri 12:12:30 PM 32.3825 -82.1031 357° North 415 478 39,000 100 Level Atlanta Center
Fri 12:13:30 PM 32.5036 -82.1078 358° North 420 483 39,200 450 Climbing Atlanta Center
Fri 12:14:30 PM 32.6250 -82.1150 357° North 425 489 39,900 850 Climbing Atlanta Center
Fri 12:15:30 PM 32.7378 -82.1175 359° North 420 483 40,900 550 Climbing Atlanta Center
Fri 12:16:30 PM 32.8547 -82.1225 358° North 420 483 41,000 50 Climbing Atlanta Center
Fri 12:17:30 PM 32.9736 -82.1297 357° North 420 483 41,000  Level Atlanta Center
Fri 12:18:30 PM 33.0928 -82.1344 358° North 425 489 41,000  Level Atlanta Center
Fri 12:19:30 PM 33.2097 -82.1394 358° North 425 489 41,000  Level Atlanta Center
Fri 12:20:30 PM 33.3392 -82.1442 358° North 425 489 41,000  Level Atlanta Center
Fri 12:21:30 PM 33.4583 -82.1514 357° North 425 489 41,000  Level Atlanta Center
Fri 12:22:30 PM 33.5731 -82.1514 360° North 425 489 41,000  Level Atlanta Center
Fri 12:23:30 PM 33.6922 -82.1564 358° North 425 489 41,000  Level Atlanta Center
Fri 12:24:30 PM 33.8111 -82.1561 360° North 425 489 41,000  Level Atlanta Center
Fri 12:25:30 PM 33.9300 -82.1586 359° North 425 489 41,000  Level Atlanta Center
Fri 12:26:30 PM 34.0492 -82.1608 359° North 425 489 41,000  Level Atlanta Center
Fri 12:27:30 PM 34.1556 -82.1611 360° North 420 483 41,000  Level Atlanta Center
Fri 12:28:30 PM 34.2725 -82.1611 360° North 420 483 41,000  Level Atlanta Center
Fri 12:29:30 PM 34.3914 -82.1633 359° North 420 483 41,000  Level Atlanta Center
Fri 12:30:30 PM 34.5083 -82.1608 North 420 483 41,000  Level Atlanta Center
Fri 12:31:30 PM 34.6253 -82.1633 359° North 420 483 41,000  Level Atlanta Center
Fri 12:32:30 PM 34.7419 -82.1658 359° North 420 483 41,000  Level Atlanta Center
Fri 12:33:30 PM 34.8611 -82.1631 North 420 483 41,000  Level Atlanta Center
Fri 12:34:30 PM 34.9800 -82.1681 358° North 428 493 41,000  Level Atlanta Center
Fri 12:35:30 PM 35.0969 -82.1678 360° North 422 486 41,000  Level Atlanta Center
Fri 12:36:30 PM 35.2283 -82.1675 360° North 422 486 41,000  Level Atlanta Center
Fri 12:37:30 PM 35.3453 -82.1672 360° North 422 486 41,000  Level Atlanta Center
Fri 12:38:30 PM 35.4661 -82.1672 360° North 422 486 41,000  Level Atlanta Center
Fri 12:39:30 PM 35.5850 -82.1669 360° North 422 486 41,000  Level Atlanta Center
Fri 12:40:30 PM 35.7039 -82.1667 360° North 422 486 41,000  Level Atlanta Center
Fri 12:41:30 PM 35.8208 -82.1692 359° North 417 480 41,000  Level Atlanta Center
Fri 12:42:30 PM 35.9439 -82.1664 North 422 486 41,000  Level Atlanta Center
Fri 12:43:30 PM 36.0503 -82.1639 North 422 486 41,000  Level Atlanta Center
Fri 12:44:30 PM 36.1669 -82.1664 359° North 422 486 41,000  Level Atlanta Center
Fri 12:45:30 PM 36.2983 -82.1608 North 406 467 41,000  Level Atlanta Center
Fri 12:46:30 PM 36.4194 -82.1631 359° North 416 479 41,000  Level Atlanta Center
Fri 12:48:14 PM 36.6178 -82.1617 360° North 433 498 41,000  Level Indianapolis Center
Fri 12:49:16 PM 36.7397 -82.1617 360° North 436 502 41,000  Level Indianapolis Center
Fri 12:50:18 PM 36.8819 -82.1619 360° North 439 505 41,000  Level Indianapolis Center
Fri 12:51:20 PM 37.0028 -82.1622 360° North 436 502 41,000  Level Indianapolis Center
Fri 12:52:22 PM 37.1244 -82.1614 360° North 437 503 41,000  Level Indianapolis Center
Fri 12:53:24 PM 37.2450 -82.1608 360° North 434 499 41,000  Level Indianapolis Center
Fri 12:54:26 PM 37.3664 -82.1619 360° North 436 502 41,000  Level Indianapolis Center
Fri 12:55:28 PM 37.5097 -82.1622 360° North 440 506 41,000  Level Indianapolis Center
Fri 12:56:30 PM 37.6317 -82.1619 360° North 439 505 41,000  Level Indianapolis Center
Fri 12:57:32 PM 37.7536 -82.1619 360° North 437 503 41,000  Level Indianapolis Center
Fri 12:58:34 PM 37.8881 -82.1614 360° North 442 509 41,000  Level Indianapolis Center
Fri 12:59:36 PM 37.9989 -82.1617 360° North 439 505 41,000  Level Indianapolis Center
Fri 01:00:38 PM 38.1344 -82.1617 360° North 443 510 41,000  Level Indianapolis Center
Fri 01:01:40 PM 38.2589 -82.1617 360° North 445 512 41,000  Level Indianapolis Center
Fri 01:02:42 PM 38.3831 -82.1625 360° North 443 510 41,000  Level Indianapolis Center
Fri 01:03:44 PM 38.5086 -82.1619 360° North 446 513 41,000  Level Indianapolis Center
Fri 01:04:46 PM 38.6336 -82.1631 360° North 447 514 41,000  Level Indianapolis Center
Fri 01:05:48 PM 38.7594 -82.1625 360° North 446 513 41,000  Level Indianapolis Center
Fri 01:06:50 PM 38.9108 -82.1617 360° North 449 517 41,000  Level Indianapolis Center
Fri 01:07:52 PM 39.0358 -82.1625 360° North 447 514 41,000  Level Indianapolis Center
Fri 01:08:55 PM 39.1608 -82.1631 360° North 446 513 41,000  Level Indianapolis Center
Fri 01:09:57 PM 39.2881 -82.1611 North 453 521 41,000 -145 Level Indianapolis Center
Fri 01:10:59 PM 39.4131 -82.1625 360° North 448 516 40,700 -1,016 Descending Indianapolis Center
Fri 01:12:01 PM 39.5467 -82.1608 North 426 490 38,900 -1,694 Descending Indianapolis Center
Fri 01:13:03 PM 39.6550 -82.1614 360° North 390 449 37,200 -1,500 Descending Indianapolis Center
Fri 01:14:05 PM 39.7642 -82.1633 359° North 391 450 35,800 -1,210 Descending Indianapolis Center
Fri 01:15:07 PM 39.8836 -82.1608 North 422 486 34,700 -1,210 Descending Indianapolis Center
Fri 01:16:09 PM 40.0089 -82.1611 360° North 444 511 33,300 -1,161 Descending Indianapolis Center
Fri 01:17:11 PM 40.1392 -82.1622 360° North 462 532 32,300 -1,258 Descending Indianapolis Center
Fri 01:18:13 PM 40.2867 -82.1611 360° North 474 545 30,700 -1,113 Descending Indianapolis Center
Fri 01:19:15 PM 40.4164 -82.1619 360° North 464 534 30,000 -339 Descending Indianapolis Center
Fri 01:20:17 PM 40.5478 -82.1606 360° North 466 536 30,000 -290 Level Indianapolis Center
Fri 01:21:19 PM 40.6806 -82.1617 360° North 471 542 29,400 -1,548 Descending Indianapolis Center
Fri 01:22:21 PM 40.8092 -82.1614 360° North 459 528 26,800 -2,312 Descending Indianapolis Center
Fri 01:23:08 PM 40.9106 -82.1767 354° North 449 517 25,200 -1,458 Descending Cleveland Center
Fri 01:24:08 PM 41.0206 -82.2289 340° North 422 486 24,200 -950 Descending Cleveland Center
Fri 01:25:08 PM 41.1406 -82.2869 340° North 417 480 23,300 -1,600 Descending Cleveland Center
Fri 01:26:08 PM 41.2419 -82.3367 340° North 407 468 21,000 -2,100 Descending Cleveland Center
Fri 01:27:08 PM 41.3475 -82.3864 341° North 401 461 19,100 -1,050 Descending Cleveland Center
Fri 01:28:08 PM 41.4489 -82.4364 340° North 395 455 18,900 -1,150 Descending Cleveland Center
Fri 01:29:08 PM 41.5419 -82.4781 341° North 367 422 16,800 -2,308 Descending Cleveland Center
Fri 01:29:39 PM 41.5917 -82.5017 340° North 364 419 15,400 -2,559 Descending Cleveland Center
Fri 01:30:16 PM 41.6536 -82.5314 340° North 371 427 13,900 -2,629 Descending Cleveland Center
Fri 01:31:08 PM 41.7364 -82.5756 338° Northwest 367 422 11,500 -2,089 Descending Cleveland Center
Fri 01:32:08 PM 41.8292 -82.6203 340° North 367 422 10,000 -1,000 Descending Cleveland Center
Fri 01:33:08 PM 41.9119 -82.6675 337° Northwest 344 396 9,500 -1,100 Descending Cleveland Center
Fri 01:34:08 PM 41.9797 -82.7200 330° Northwest 307 353 7,800 -1,750 Descending Cleveland Center
Fri 01:35:08 PM 42.0517 -82.7672 334° Northwest 289 333 6,000 -1,650 Descending Cleveland Center
Fri 01:36:08 PM 42.1197 -82.8142 333° Northwest 277 319 4,500 -1,150 Descending Cleveland Center
Fri 01:37:08 PM 42.1833 -82.8586 333° Northwest 272 313 3,700 -750 Descending Cleveland Center
Fri 01:38:08 PM 42.2408 -82.8969 334° Northwest 261 300 3,000 -350 Descending Cleveland Center
Fri 01:39:08 PM 42.2964 -82.9328 334° Northwest 245 282 3,000 -336 Level Cleveland Center
Fri 01:40:31 PM 42.3681 -83.0058 323° Northwest 212 244 2,200 -500 Descending Cleveland Center
Fri 01:41:32 PM 42.4003 -83.0575 310° West 163 188 1,800 -344 Descending Cleveland Center
Fri 01:42:33 PM 42.4375 -83.0647 352° North 146 168 1,500 -466 Descending Cleveland Center
Fri 01:43:28 PM 42.4258 -83.0275 113° Southeast 128 147 900 -655 Descending Cleveland Center
Fri 01:45:00 PM 42.4093 -83.0102 132° Southeast  Level Estimated

Login

Don't have an account? Register now (free) for customized features, flight alerts, and more!